Terminal Aerodrome Forecast
Issued by NWS

Home | Current Version | Previous Version | Text Only | Print | Product List | Glossary Off
Versions: 1 2 3 4 5 6 7 8 9 10 11 12 13 14

421
FTUS43 KTOP 200523
TAFMHK
TAF
KMHK 200523Z 2006/2106 22010KT P6SM SKC WS012/22045KT
     FM201500 21017G24KT P6SM SKC
     FM210000 22009KT P6SM FEW200=

USA.gov is the U.S. government's official web portal to all federal, state and local government web resources and services.